sensor_id;sensor_type;location;lat;lon;timestamp;temperature;humidity
34766;DHT22;20984;43.508;1.504;2023-04-01T00:00:17;11.30;99.90
34766;DHT22;20984;43.508;1.504;2023-04-01T00:02:43;11.20;99.90
34766;DHT22;20984;43.508;1.504;2023-04-01T00:05:09;11.10;99.90
34766;DHT22;20984;43.508;1.504;2023-04-01T00:07:38;11.10;99.90
34766;DHT22;20984;43.508;1.504;2023-04-01T00:10:06;11.10;99.90
34766;DHT22;20984;43.508;1.504;2023-04-01T00:12:32;11.10;99.90
34766;DHT22;20984;43.508;1.504;2023-04-01T00:14:57;11.10;99.90
34766;DHT22;20984;43.508;1.504;2023-04-01T00:17:23;11.00;99.90
34766;DHT22;20984;43.508;1.504;2023-04-01T00:19:49;11.00;99.90
34766;DHT22;20984;43.508;1.504;2023-04-01T00:22:15;11.00;99.90
34766;DHT22;20984;43.508;1.504;2023-04-01T00:24:40;11.00;99.90
34766;DHT22;20984;43.508;1.504;2023-04-01T00:27:06;11.00;99.90
34766;DHT22;20984;43.508;1.504;2023-04-01T00:29:33;11.00;99.90
34766;DHT22;20984;43.508;1.504;2023-04-01T00:32:00;11.00;99.90
34766;DHT22;20984;43.508;1.504;2023-04-01T00:34:26;11.00;99.90
34766;DHT22;20984;43.508;1.504;2023-04-01T00:36:52;11.00;99.90
34766;DHT22;20984;43.508;1.504;2023-04-01T00:39:20;11.00;99.90
34766;DHT22;20984;43.508;1.504;2023-04-01T00:41:46;11.00;99.90
34766;DHT22;20984;43.508;1.504;2023-04-01T00:44:23;10.90;99.90
34766;DHT22;20984;43.508;1.504;2023-04-01T00:46:50;10.90;99.90
34766;DHT22;20984;43.508;1.504;2023-04-01T00:49:20;11.00;99.90
34766;DHT22;20984;43.508;1.504;2023-04-01T00:51:49;10.90;99.90
34766;DHT22;20984;43.508;1.504;2023-04-01T00:54:16;10.90;99.90
34766;DHT22;20984;43.508;1.504;2023-04-01T00:56:53;10.90;99.90
34766;DHT22;20984;43.508;1.504;2023-04-01T00:59:30;10.80;99.90
34766;DHT22;20984;43.508;1.504;2023-04-01T01:01:57;10.80;99.90
34766;DHT22;20984;43.508;1.504;2023-04-01T01:04:28;10.80;99.90
34766;DHT22;20984;43.508;1.504;2023-04-01T01:12:23;10.70;99.90
34766;DHT22;20984;43.508;1.504;2023-04-01T01:27:39;10.60;99.90
34766;DHT22;20984;43.508;1.504;2023-04-01T01:30:57;10.70;99.90
34766;DHT22;20984;43.508;1.504;2023-04-01T01:35:51;10.70;99.90
34766;DHT22;20984;43.508;1.504;2023-04-01T01:38:21;10.70;99.90
34766;DHT22;20984;43.508;1.504;2023-04-01T01:40:50;10.70;99.90
34766;DHT22;20984;43.508;1.504;2023-04-01T01:43:26;10.60;99.90
34766;DHT22;20984;43.508;1.504;2023-04-01T01:45:56;10.60;99.90
34766;DHT22;20984;43.508;1.504;2023-04-01T01:48:24;10.60;99.90
34766;DHT22;20984;43.508;1.504;2023-04-01T01:50:52;10.60;99.90
34766;DHT22;20984;43.508;1.504;2023-04-01T01:53:18;10.60;99.90
34766;DHT22;20984;43.508;1.504;2023-04-01T01:55:45;10.60;99.90
34766;DHT22;20984;43.508;1.504;2023-04-01T01:58:18;10.70;99.90
34766;DHT22;20984;43.508;1.504;2023-04-01T02:00:50;10.70;99.90
34766;DHT22;20984;43.508;1.504;2023-04-01T02:03:17;10.70;99.90
34766;DHT22;20984;43.508;1.504;2023-04-01T02:05:45;10.70;99.90
34766;DHT22;20984;43.508;1.504;2023-04-01T02:08:21;10.70;99.90
34766;DHT22;20984;43.508;1.504;2023-04-01T02:10:58;10.70;99.90
34766;DHT22;20984;43.508;1.504;2023-04-01T02:13:31;10.70;99.90
34766;DHT22;20984;43.508;1.504;2023-04-01T02:16:01;10.70;99.90
34766;DHT22;20984;43.508;1.504;2023-04-01T02:18:28;10.70;99.90
34766;DHT22;20984;43.508;1.504;2023-04-01T02:20:57;10.70;99.90
34766;DHT22;20984;43.508;1.504;2023-04-01T02:23:23;10.70;99.90
34766;DHT22;20984;43.508;1.504;2023-04-01T02:25:49;10.70;99.90
34766;DHT22;20984;43.508;1.504;2023-04-01T02:28:18;10.70;99.90
34766;DHT22;20984;43.508;1.504;2023-04-01T02:30:46;10.60;99.90
34766;DHT22;20984;43.508;1.504;2023-04-01T02:33:13;10.60;99.90
34766;DHT22;20984;43.508;1.504;2023-04-01T02:35:39;10.50;99.90
34766;DHT22;20984;43.508;1.504;2023-04-01T02:38:05;10.60;99.90
34766;DHT22;20984;43.508;1.504;2023-04-01T02:40:42;10.50;99.90
34766;DHT22;20984;43.508;1.504;2023-04-01T02:43:07;10.50;99.90
34766;DHT22;20984;43.508;1.504;2023-04-01T02:45:33;10.40;99.90
34766;DHT22;20984;43.508;1.504;2023-04-01T02:47:59;10.40;99.90
34766;DHT22;20984;43.508;1.504;2023-04-01T02:50:24;10.40;99.90
34766;DHT22;20984;43.508;1.504;2023-04-01T02:52:50;10.40;99.90
34766;DHT22;20984;43.508;1.504;2023-04-01T02:55:16;10.40;99.90
34766;DHT22;20984;43.508;1.504;2023-04-01T02:57:42;10.30;99.90
34766;DHT22;20984;43.508;1.504;2023-04-01T03:00:08;10.30;99.90
34766;DHT22;20984;43.508;1.504;2023-04-01T03:02:38;10.20;99.90
34766;DHT22;20984;43.508;1.504;2023-04-01T03:05:05;10.20;99.90
34766;DHT22;20984;43.508;1.504;2023-04-01T03:07:31;10.20;99.90
34766;DHT22;20984;43.508;1.504;2023-04-01T03:09:57;10.20;99.90
34766;DHT22;20984;43.508;1.504;2023-04-01T03:12:22;10.10;99.90
34766;DHT22;20984;43.508;1.504;2023-04-01T03:14:48;10.10;99.90
34766;DHT22;20984;43.508;1.504;2023-04-01T03:17:13;10.10;99.90
34766;DHT22;20984;43.508;1.504;2023-04-01T03:19:39;10.10;99.90
34766;DHT22;20984;43.508;1.504;2023-04-01T03:22:05;10.10;99.90
34766;DHT22;20984;43.508;1.504;2023-04-01T03:24:31;10.10;99.90
34766;DHT22;20984;43.508;1.504;2023-04-01T03:26:56;10.10;99.90
34766;DHT22;20984;43.508;1.504;2023-04-01T03:29:22;10.00;99.90
34766;DHT22;20984;43.508;1.504;2023-04-01T03:31:48;10.00;99.90
34766;DHT22;20984;43.508;1.504;2023-04-01T03:34:13;10.00;99.90
34766;DHT22;20984;43.508;1.504;2023-04-01T03:36:39;10.00;99.90
34766;DHT22;20984;43.508;1.504;2023-04-01T03:39:05;9.90;99.90
34766;DHT22;20984;43.508;1.504;2023-04-01T03:41:31;9.90;99.90
34766;DHT22;20984;43.508;1.504;2023-04-01T03:43:57;9.90;99.90
34766;DHT22;20984;43.508;1.504;2023-04-01T03:46:23;10.00;99.90
34766;DHT22;20984;43.508;1.504;2023-04-01T03:48:48;9.90;99.90
34766;DHT22;20984;43.508;1.504;2023-04-01T03:51:14;9.90;99.90
34766;DHT22;20984;43.508;1.504;2023-04-01T03:53:40;9.90;99.90
34766;DHT22;20984;43.508;1.504;2023-04-01T03:56:06;10.00;99.90
34766;DHT22;20984;43.508;1.504;2023-04-01T03:58:32;10.00;99.90
34766;DHT22;20984;43.508;1.504;2023-04-01T04:00:58;10.00;99.90
34766;DHT22;20984;43.508;1.504;2023-04-01T04:03:24;10.10;99.90
34766;DHT22;20984;43.508;1.504;2023-04-01T04:05:49;10.20;99.90
34766;DHT22;20984;43.508;1.504;2023-04-01T04:08:16;10.20;99.90
34766;DHT22;20984;43.508;1.504;2023-04-01T04:10:42;10.20;99.90
34766;DHT22;20984;43.508;1.504;2023-04-01T04:13:08;10.20;99.90
34766;DHT22;20984;43.508;1.504;2023-04-01T04:15:34;10.20;99.90
34766;DHT22;20984;43.508;1.504;2023-04-01T04:18:00;10.20;99.90
34766;DHT22;20984;43.508;1.504;2023-04-01T04:20:25;10.20;99.90
34766;DHT22;20984;43.508;1.504;2023-04-01T04:22:51;10.30;99.90
34766;DHT22;20984;43.508;1.504;2023-04-01T04:25:16;10.20;99.90
34766;DHT22;20984;43.508;1.504;2023-04-01T04:27:42;10.20;99.90
34766;DHT22;20984;43.508;1.504;2023-04-01T04:30:08;10.30;99.90
34766;DHT22;20984;43.508;1.504;2023-04-01T04:32:34;10.30;99.90
34766;DHT22;20984;43.508;1.504;2023-04-01T04:35:00;10.30;99.90
34766;DHT22;20984;43.508;1.504;2023-04-01T04:37:26;10.30;99.90
34766;DHT22;20984;43.508;1.504;2023-04-01T04:39:52;10.30;99.90
34766;DHT22;20984;43.508;1.504;2023-04-01T04:42:18;10.30;99.90
34766;DHT22;20984;43.508;1.504;2023-04-01T04:44:43;10.30;99.90
34766;DHT22;20984;43.508;1.504;2023-04-01T04:47:09;10.40;99.90
34766;DHT22;20984;43.508;1.504;2023-04-01T04:49:35;10.40;99.90
34766;DHT22;20984;43.508;1.504;2023-04-01T04:52:01;10.40;99.90
34766;DHT22;20984;43.508;1.504;2023-04-01T04:54:26;10.30;99.90
34766;DHT22;20984;43.508;1.504;2023-04-01T04:56:52;10.40;99.90
34766;DHT22;20984;43.508;1.504;2023-04-01T04:59:18;10.30;99.90
34766;DHT22;20984;43.508;1.504;2023-04-01T05:01:44;10.30;99.90
34766;DHT22;20984;43.508;1.504;2023-04-01T05:04:09;10.30;99.90
34766;DHT22;20984;43.508;1.504;2023-04-01T05:06:35;10.30;99.90
34766;DHT22;20984;43.508;1.504;2023-04-01T05:09:01;10.30;99.90
34766;DHT22;20984;43.508;1.504;2023-04-01T05:11:26;10.30;99.90
34766;DHT22;20984;43.508;1.504;2023-04-01T05:13:52;10.30;99.90
34766;DHT22;20984;43.508;1.504;2023-04-01T05:16:20;10.30;99.90
34766;DHT22;20984;43.508;1.504;2023-04-01T05:18:46;10.30;99.90
34766;DHT22;20984;43.508;1.504;2023-04-01T05:21:13;10.30;99.90
34766;DHT22;20984;43.508;1.504;2023-04-01T05:23:39;10.20;99.90
34766;DHT22;20984;43.508;1.504;2023-04-01T05:26:06;10.20;99.90
34766;DHT22;20984;43.508;1.504;2023-04-01T05:28:32;10.20;99.90
34766;DHT22;20984;43.508;1.504;2023-04-01T05:30:59;10.20;99.90
34766;DHT22;20984;43.508;1.504;2023-04-01T05:33:26;10.20;99.90
34766;DHT22;20984;43.508;1.504;2023-04-01T05:35:52;10.30;99.90
34766;DHT22;20984;43.508;1.504;2023-04-01T05:38:17;10.30;99.90
34766;DHT22;20984;43.508;1.504;2023-04-01T05:40:43;10.20;99.90
34766;DHT22;20984;43.508;1.504;2023-04-01T05:43:09;10.20;99.90
34766;DHT22;20984;43.508;1.504;2023-04-01T05:45:34;10.20;99.90
34766;DHT22;20984;43.508;1.504;2023-04-01T05:48:00;10.20;99.90
34766;DHT22;20984;43.508;1.504;2023-04-01T05:50:26;10.20;99.90
34766;DHT22;20984;43.508;1.504;2023-04-01T05:52:52;10.20;99.90
34766;DHT22;20984;43.508;1.504;2023-04-01T05:55:18;10.30;99.90
34766;DHT22;20984;43.508;1.504;2023-04-01T05:57:45;10.30;99.90
34766;DHT22;20984;43.508;1.504;2023-04-01T06:00:12;10.40;99.90
34766;DHT22;20984;43.508;1.504;2023-04-01T06:02:38;10.40;99.90
34766;DHT22;20984;43.508;1.504;2023-04-01T06:05:18;10.50;99.90
34766;DHT22;20984;43.508;1.504;2023-04-01T06:07:43;10.60;99.90
34766;DHT22;20984;43.508;1.504;2023-04-01T06:10:18;10.60;99.90
34766;DHT22;20984;43.508;1.504;2023-04-01T06:18:30;10.80;99.90
34766;DHT22;20984;43.508;1.504;2023-04-01T06:29:33;10.90;99.90
34766;DHT22;20984;43.508;1.504;2023-04-01T06:56:16;11.30;99.90
34766;DHT22;20984;43.508;1.504;2023-04-01T06:58:50;11.40;99.90
34766;DHT22;20984;43.508;1.504;2023-04-01T07:01:24;11.40;99.90
34766;DHT22;20984;43.508;1.504;2023-04-01T07:03:58;11.50;99.90
34766;DHT22;20984;43.508;1.504;2023-04-01T07:06:30;11.50;99.90
34766;DHT22;20984;43.508;1.504;2023-04-01T07:08:59;11.50;99.90
34766;DHT22;20984;43.508;1.504;2023-04-01T07:11:34;11.50;99.90
34766;DHT22;20984;43.508;1.504;2023-04-01T07:16:48;11.60;99.90
34766;DHT22;20984;43.508;1.504;2023-04-01T07:22:29;11.70;99.90
34766;DHT22;20984;43.508;1.504;2023-04-01T07:25:01;11.70;99.90
34766;DHT22;20984;43.508;1.504;2023-04-01T07:27:27;11.70;99.90
34766;DHT22;20984;43.508;1.504;2023-04-01T07:29:56;11.70;99.90
34766;DHT22;20984;43.508;1.504;2023-04-01T07:32:56;11.70;99.90
34766;DHT22;20984;43.508;1.504;2023-04-01T07:35:39;11.70;99.90
34766;DHT22;20984;43.508;1.504;2023-04-01T07:38:31;11.70;99.90
34766;DHT22;20984;43.508;1.504;2023-04-01T07:44:13;11.80;99.90
34766;DHT22;20984;43.508;1.504;2023-04-01T07:57:19;12.20;99.90
34766;DHT22;20984;43.508;1.504;2023-04-01T08:10:23;12.70;99.90
34766;DHT22;20984;43.508;1.504;2023-04-01T08:21:28;12.80;99.90
34766;DHT22;20984;43.508;1.504;2023-04-01T08:23:57;12.90;99.90
34766;DHT22;20984;43.508;1.504;2023-04-01T08:26:46;13.00;99.90
34766;DHT22;20984;43.508;1.504;2023-04-01T08:29:40;13.10;99.90
34766;DHT22;20984;43.508;1.504;2023-04-01T08:32:18;13.10;99.90
34766;DHT22;20984;43.508;1.504;2023-04-01T08:34:55;13.20;99.90
34766;DHT22;20984;43.508;1.504;2023-04-01T08:37:28;13.30;99.90
34766;DHT22;20984;43.508;1.504;2023-04-01T08:40:10;13.40;99.90
34766;DHT22;20984;43.508;1.504;2023-04-01T08:46:15;13.30;99.90
34766;DHT22;20984;43.508;1.504;2023-04-01T09:00:54;14.00;99.90
34766;DHT22;20984;43.508;1.504;2023-04-01T09:06:24;14.30;99.90
34766;DHT22;20984;43.508;1.504;2023-04-01T09:28:28;14.40;99.90
34766;DHT22;20984;43.508;1.504;2023-04-01T09:34:33;14.30;99.90
34766;DHT22;20984;43.508;1.504;2023-04-01T09:37:13;14.30;99.90
34766;DHT22;20984;43.508;1.504;2023-04-01T10:40:20;15.30;99.90
34766;DHT22;20984;43.508;1.504;2023-04-01T10:53:33;15.00;99.90
34766;DHT22;20984;43.508;1.504;2023-04-01T10:56:05;15.30;99.90
34766;DHT22;20984;43.508;1.504;2023-04-01T11:10:05;15.70;99.90
34766;DHT22;20984;43.508;1.504;2023-04-01T11:18:54;15.00;99.90
34766;DHT22;20984;43.508;1.504;2023-04-01T11:43:10;11.30;99.90
34766;DHT22;20984;43.508;1.504;2023-04-01T11:45:50;11.20;99.90
34766;DHT22;20984;43.508;1.504;2023-04-01T11:53:52;11.40;99.90
34766;DHT22;20984;43.508;1.504;2023-04-01T12:10:02;12.30;99.90
34766;DHT22;20984;43.508;1.504;2023-04-01T12:21:07;12.90;99.90
34766;DHT22;20984;43.508;1.504;2023-04-01T12:26:25;13.30;99.90
34766;DHT22;20984;43.508;1.504;2023-04-01T12:40:49;13.30;99.90
34766;DHT22;20984;43.508;1.504;2023-04-01T13:05:12;12.90;99.90
34766;DHT22;20984;43.508;1.504;2023-04-01T13:07:52;12.80;99.90
34766;DHT22;20984;43.508;1.504;2023-04-01T13:11:20;12.80;99.90
34766;DHT22;20984;43.508;1.504;2023-04-01T13:13:43;12.70;99.90
34766;DHT22;20984;43.508;1.504;2023-04-01T13:16:24;12.40;99.90
34766;DHT22;20984;43.508;1.504;2023-04-01T13:19:17;12.10;99.90
34766;DHT22;20984;43.508;1.504;2023-04-01T13:24:39;11.80;99.90
34766;DHT22;20984;43.508;1.504;2023-04-01T13:27:27;11.70;99.90
34766;DHT22;20984;43.508;1.504;2023-04-01T13:43:51;10.10;99.90
34766;DHT22;20984;43.508;1.504;2023-04-01T13:46:33;10.20;99.90
34766;DHT22;20984;43.508;1.504;2023-04-01T13:54:22;10.30;99.90
34766;DHT22;20984;43.508;1.504;2023-04-01T13:57:14;10.30;99.90
34766;DHT22;20984;43.508;1.504;2023-04-01T14:02:31;10.30;99.90
34766;DHT22;20984;43.508;1.504;2023-04-01T14:27:16;9.90;99.90
34766;DHT22;20984;43.508;1.504;2023-04-01T14:44:30;10.00;99.90
34766;DHT22;20984;43.508;1.504;2023-04-01T14:47:24;10.00;99.90
34766;DHT22;20984;43.508;1.504;2023-04-01T14:50:04;10.00;99.90
34766;DHT22;20984;43.508;1.504;2023-04-01T14:52:33;10.10;99.90
34766;DHT22;20984;43.508;1.504;2023-04-01T14:55:02;10.10;99.90
34766;DHT22;20984;43.508;1.504;2023-04-01T14:57:36;10.00;99.90
34766;DHT22;20984;43.508;1.504;2023-04-01T15:00:17;9.90;99.90
34766;DHT22;20984;43.508;1.504;2023-04-01T15:03:03;9.80;99.90
34766;DHT22;20984;43.508;1.504;2023-04-01T15:17:19;8.30;99.90
34766;DHT22;20984;43.508;1.504;2023-04-01T15:26:36;7.70;99.90
34766;DHT22;20984;43.508;1.504;2023-04-01T15:32:12;7.70;99.90
34766;DHT22;20984;43.508;1.504;2023-04-01T15:34:56;7.80;99.90
34766;DHT22;20984;43.508;1.504;2023-04-01T15:52:11;8.40;99.90
34766;DHT22;20984;43.508;1.504;2023-04-01T15:55:03;8.60;99.90
34766;DHT22;20984;43.508;1.504;2023-04-01T15:57:45;8.70;99.90
34766;DHT22;20984;43.508;1.504;2023-04-01T16:00:26;9.10;99.90
34766;DHT22;20984;43.508;1.504;2023-04-01T16:17:43;10.20;99.90
34766;DHT22;20984;43.508;1.504;2023-04-01T16:20:20;10.00;99.90
34766;DHT22;20984;43.508;1.504;2023-04-01T16:22:54;9.70;99.90
34766;DHT22;20984;43.508;1.504;2023-04-01T16:25:41;9.40;99.90
34766;DHT22;20984;43.508;1.504;2023-04-01T16:37:03;9.20;99.90
34766;DHT22;20984;43.508;1.504;2023-04-01T16:42:32;9.10;99.90
34766;DHT22;20984;43.508;1.504;2023-04-01T16:47:40;9.00;99.90
34766;DHT22;20984;43.508;1.504;2023-04-01T16:52:40;8.90;99.90
34766;DHT22;20984;43.508;1.504;2023-04-01T16:55:20;8.90;99.90
34766;DHT22;20984;43.508;1.504;2023-04-01T16:57:51;8.90;99.90
34766;DHT22;20984;43.508;1.504;2023-04-01T17:03:44;9.00;99.90
34766;DHT22;20984;43.508;1.504;2023-04-01T17:06:37;9.10;99.90
34766;DHT22;20984;43.508;1.504;2023-04-01T17:11:45;9.10;99.90
34766;DHT22;20984;43.508;1.504;2023-04-01T17:22:44;9.20;99.90
34766;DHT22;20984;43.508;1.504;2023-04-01T17:28:32;9.20;99.90
34766;DHT22;20984;43.508;1.504;2023-04-01T17:30:44;9.20;99.90
34766;DHT22;20984;43.508;1.504;2023-04-01T17:45:52;9.20;99.90
34766;DHT22;20984;43.508;1.504;2023-04-01T17:48:21;9.20;99.90
34766;DHT22;20984;43.508;1.504;2023-04-01T18:04:53;8.80;99.90
34766;DHT22;20984;43.508;1.504;2023-04-01T18:10:25;8.70;99.90
34766;DHT22;20984;43.508;1.504;2023-04-01T18:21:00;8.30;99.90
34766;DHT22;20984;43.508;1.504;2023-04-01T18:23:44;8.10;99.90
34766;DHT22;20984;43.508;1.504;2023-04-01T18:26:20;7.90;99.90
34766;DHT22;20984;43.508;1.504;2023-04-01T18:28:52;7.80;99.90
34766;DHT22;20984;43.508;1.504;2023-04-01T18:31:24;7.70;99.90
34766;DHT22;20984;43.508;1.504;2023-04-01T18:34:19;7.70;99.90
34766;DHT22;20984;43.508;1.504;2023-04-01T18:39:35;7.60;99.90
34766;DHT22;20984;43.508;1.504;2023-04-01T18:45:17;7.50;99.90
34766;DHT22;20984;43.508;1.504;2023-04-01T18:55:51;7.50;99.90
34766;DHT22;20984;43.508;1.504;2023-04-01T18:58:28;7.50;99.90
34766;DHT22;20984;43.508;1.504;2023-04-01T19:01:19;7.50;99.90
34766;DHT22;20984;43.508;1.504;2023-04-01T19:04:15;7.60;99.90
34766;DHT22;20984;43.508;1.504;2023-04-01T19:07:17;7.50;99.90
34766;DHT22;20984;43.508;1.504;2023-04-01T19:09:46;7.50;99.90
34766;DHT22;20984;43.508;1.504;2023-04-01T19:12:24;7.60;99.90
34766;DHT22;20984;43.508;1.504;2023-04-01T19:25:40;7.60;99.90
34766;DHT22;20984;43.508;1.504;2023-04-01T19:45:04;7.50;99.90
34766;DHT22;20984;43.508;1.504;2023-04-01T19:52:57;7.40;99.90
34766;DHT22;20984;43.508;1.504;2023-04-01T19:55:40;7.40;99.90
34766;DHT22;20984;43.508;1.504;2023-04-01T20:01:08;7.50;99.90
34766;DHT22;20984;43.508;1.504;2023-04-01T20:03:49;7.50;99.90
34766;DHT22;20984;43.508;1.504;2023-04-01T20:17:24;7.40;99.90
34766;DHT22;20984;43.508;1.504;2023-04-01T20:19:56;7.40;99.90
34766;DHT22;20984;43.508;1.504;2023-04-01T20:24:51;7.50;99.90
34766;DHT22;20984;43.508;1.504;2023-04-01T20:27:23;7.50;99.90
34766;DHT22;20984;43.508;1.504;2023-04-01T20:40:41;7.40;99.90
34766;DHT22;20984;43.508;1.504;2023-04-01T20:43:35;7.30;99.90
34766;DHT22;20984;43.508;1.504;2023-04-01T20:46:23;7.30;99.90
34766;DHT22;20984;43.508;1.504;2023-04-01T20:51:25;7.30;99.90
34766;DHT22;20984;43.508;1.504;2023-04-01T20:57:21;7.30;99.90
34766;DHT22;20984;43.508;1.504;2023-04-01T21:10:50;7.40;99.90
34766;DHT22;20984;43.508;1.504;2023-04-01T21:19:17;7.40;99.90
34766;DHT22;20984;43.508;1.504;2023-04-01T21:22:10;7.50;99.90
34766;DHT22;20984;43.508;1.504;2023-04-01T21:28:05;7.50;99.90
34766;DHT22;20984;43.508;1.504;2023-04-01T21:33:51;7.40;99.90
34766;DHT22;20984;43.508;1.504;2023-04-01T21:53:43;7.20;99.90
34766;DHT22;20984;43.508;1.504;2023-04-01T22:04:36;7.20;99.90
34766;DHT22;20984;43.508;1.504;2023-04-01T22:07:23;7.20;99.90
34766;DHT22;20984;43.508;1.504;2023-04-01T22:15:01;7.20;99.90
34766;DHT22;20984;43.508;1.504;2023-04-01T22:17:51;7.20;99.90
34766;DHT22;20984;43.508;1.504;2023-04-01T22:25:56;7.20;99.90
34766;DHT22;20984;43.508;1.504;2023-04-01T22:28:42;7.20;99.90
34766;DHT22;20984;43.508;1.504;2023-04-01T22:31:14;7.20;99.90
34766;DHT22;20984;43.508;1.504;2023-04-01T22:36:13;7.20;99.90
34766;DHT22;20984;43.508;1.504;2023-04-01T22:41:38;7.20;99.90
34766;DHT22;20984;43.508;1.504;2023-04-01T22:54:58;7.10;99.90
34766;DHT22;20984;43.508;1.504;2023-04-01T23:00:06;7.10;99.90
34766;DHT22;20984;43.508;1.504;2023-04-01T23:03:04;7.10;99.90
34766;DHT22;20984;43.508;1.504;2023-04-01T23:05:34;7.10;99.90
34766;DHT22;20984;43.508;1.504;2023-04-01T23:08:25;7.10;99.90
34766;DHT22;20984;43.508;1.504;2023-04-01T23:10:57;7.00;99.90
34766;DHT22;20984;43.508;1.504;2023-04-01T23:13:31;7.10;99.90
34766;DHT22;20984;43.508;1.504;2023-04-01T23:15:58;7.00;99.90
34766;DHT22;20984;43.508;1.504;2023-04-01T23:20:54;7.00;99.90
34766;DHT22;20984;43.508;1.504;2023-04-01T23:26:40;6.90;99.90
34766;DHT22;20984;43.508;1.504;2023-04-01T23:29:16;7.00;99.90
34766;DHT22;20984;43.508;1.504;2023-04-01T23:31:47;7.00;99.90
34766;DHT22;20984;43.508;1.504;2023-04-01T23:36:44;7.00;99.90
34766;DHT22;20984;43.508;1.504;2023-04-01T23:39:23;7.00;99.90
34766;DHT22;20984;43.508;1.504;2023-04-01T23:41:52;7.00;99.90
34766;DHT22;20984;43.508;1.504;2023-04-01T23:44:19;7.00;99.90
34766;DHT22;20984;43.508;1.504;2023-04-01T23:46:47;7.00;99.90
34766;DHT22;20984;43.508;1.504;2023-04-01T23:49:35;7.00;99.90
34766;DHT22;20984;43.508;1.504;2023-04-01T23:52:17;6.90;99.90
34766;DHT22;20984;43.508;1.504;2023-04-01T23:54:50;6.90;99.90
34766;DHT22;20984;43.508;1.504;2023-04-01T23:57:26;6.90;99.90
